x

8447387 - Borden Flats Light At Fall River, Ma (bltm3) Weather Station

5:18 - Sun 21st Dec 2014 All times are EST. -5 hours from GMT.

  • Wind
    11mph, 13mph gusts
  • Ar Temp 36°f
  • Sea Pressure 1024mb
  • 8447387 - Borden Flats Light At Fall River, Ma
  • 8447387 - Borden Flats Light At Fall River, Ma

More Historic Weather Station data

Upgrade to MSW Pro to gain access to the past 30 days of data for over 8000 Wavebouys and Weather Stations around the globe.

Join Pro

Comparision Forecast

View Surf forecast
   
Dom 12/21 5:18 11 13 mph 1024mb 36f
5:12 10 13 mph 1024mb 36f
5:06 10 13 mph 1024mb 36f
5:00 9 11 mph 1024mb 36f
4:54 8 10 mph 1024.1mb 35f
4:48 7 9 mph 1024.1mb 36f
4:42 9 10 mph 1024mb 36f
4:36 10 14 mph 1023.9mb 35f
4:30 13 15 mph 1023.8mb 36f
4:24 13 15 mph 1023.8mb 35f
4:18 13 15 mph 1023.8mb 35f
4:12 13 14 mph 1023.7mb 36f
4:06 11 14 mph 1023.7mb 36f
4:00 11 13 mph 1023.7mb 35f
3:54 10 11 mph 1023.8mb 35f
3:48 10 13 mph 1023.9mb 35f
3:42 10 13 mph 1024mb 35f
3:36 9 11 mph 1024.1mb 35f
3:30 10 13 mph 1024.1mb 35f
3:24 11 13 mph 1024.1mb 35f
3:18 11 14 mph 1024.1mb 35f
3:12 13 17 mph 1024mb 35f
3:06 13 15 mph 1024.1mb 35f
3:00 10 11 mph 1024.2mb 35f
2:54 10 13 mph 1024.2mb 35f
2:48 9 11 mph 1024.3mb 35f
2:42 9 10 mph 1024.3mb 35f
2:36 9 10 mph 1024.4mb 35f
2:30 9 10 mph 1024.4mb 35f
2:24 9 11 mph 1024.4mb 35f
2:18 9 11 mph 1024.3mb 35f
2:12 9 11 mph 1024.3mb 35f
2:06 10 13 mph 1024.2mb 35f
2:00 10 13 mph 1024.2mb 35f
1:54 10 11 mph 1024.2mb 35f
1:48  -  mph 1024.2mb -
1:42 11 14 mph 1024.2mb 35f
1:36 10 11 mph 1024.1mb 35f
1:30 10 11 mph 1024.1mb 35f
1:24 9 11 mph 1024.1mb 35f
1:18 9 11 mph 1024.1mb 35f
1:12 8 10 mph 1024.1mb 35f
1:06 8 9 mph 1024.1mb 35f
1:00 8 11 mph 1024.1mb 35f
12:54 8 11 mph 1024mb 35f
12:48 8 10 mph 1024mb 35f
12:42 8 9 mph 1024mb 35f
12:36 7 9 mph 1024mb 35f
12:30 7 8 mph 1024mb 35f
12:24 7 8 mph 1024.1mb 35f
12:18 6 7 mph 1024.2mb 35f
12:12 5 6 mph 1024.3mb 35f
12:06 5 6 mph 1024.3mb 35f
12:00 5 6 mph 1024.4mb 35f
Sáb 12/20 11:54 5 6 mph 1024.4mb 35f
11:48 5 6 mph 1024.4mb 35f
11:42 7 9 mph 1024.4mb 35f
11:36 7 9 mph 1024.4mb 35f
11:30 7 9 mph 1024.4mb 35f
11:24 8 9 mph 1024.4mb 35f
11:18 9 10 mph 1024.4mb 35f
11:12 7 8 mph 1024.4mb 35f
11:06 6 7 mph 1024.6mb 35f
11:00 6 8 mph 1024.6mb 34f
10:54 5 7 mph 1024.7mb 34f
10:48 6 7 mph 1024.8mb 35f
10:42 6 7 mph 1024.8mb 34f
10:36 5 6 mph 1024.7mb 34f
10:30 5 6 mph 1024.7mb 34f
10:24 3 6 mph 1024.7mb 34f
10:18 5 6 mph 1024.7mb 34f
10:12 5 6 mph 1024.7mb 34f
10:06 2 3 mph 1024.7mb 34f
10:00 2
mph
1024.7mb 34f
9:54 2 3 mph 1024.7mb 34f
9:48 2 5 mph 1024.7mb 34f
9:42 3 5 mph 1024.7mb 34f
9:36 3 5 mph 1024.7mb 34f
9:30 3 5 mph 1024.7mb 34f
9:24 5 6 mph 1024.6mb 34f
9:18 5 6 mph 1024.6mb 34f
9:12 6
mph
1024.6mb 34f
9:06 6 7 mph 1024.5mb 34f
9:00 6 7 mph 1024.5mb 34f
8:54 5 6 mph 1024.6mb 34f
8:48 6 7 mph 1024.6mb 34f
8:42 5 6 mph 1024.7mb 34f
8:36 3 6 mph 1024.7mb 34f
8:30 3 5 mph 1024.7mb 34f
8:24 5 6 mph 1024.8mb 33f
8:18 5 7 mph 1024.8mb 34f
8:12 5 6 mph 1024.8mb 33f
8:06 5 7 mph 1024.8mb 33f
8:00 5 6 mph 1024.8mb 33f
7:54 5 6 mph 1024.9mb 33f
7:48 6 7 mph 1024.8mb 33f
7:42 5 7 mph 1024.9mb 33f
7:36 5 7 mph 1024.9mb 33f
7:30 6 9 mph 1024.9mb 33f
7:24 6 8 mph 1025mb 33f
7:18 7 8 mph 1025mb 34f
7:12 6 8 mph 1025mb 34f
7:06 6 8 mph 1024.9mb 34f
7:00 6 9 mph 1024.9mb 34f
6:54 9 14 mph 1024.9mb 34f
6:48 6 8 mph 1024.8mb 34f
6:42 6 8 mph 1024.7mb 34f
6:36 9 10 mph 1024.6mb 34f
6:30 10 14 mph 1024.5mb 34f
6:24 9 11 mph 1024.6mb 34f
6:18 8 10 mph 1024.5mb 34f
6:12 7 10 mph 1024.6mb 34f
6:06 8 10 mph 1024.6mb 34f
6:00 6 8 mph 1024.7mb 34f
5:54 6 7 mph 1024.7mb 34f
5:48 6 7 mph 1024.6mb 34f
5:42 6 8 mph 1024.5mb 34f
5:36 7 9 mph 1024.5mb 34f
5:30 7 8 mph 1024.4mb 34f
5:24 8 11 mph 1024.3mb 34f
5:18 7 9 mph 1024.3mb 34f
5:12 7 8 mph 1024.2mb 34f
5:06 7 9 mph 1024.2mb 34f
5:00 8 11 mph 1024.1mb 34f
4:54 7 8 mph 1024.1mb 35f
4:48 8 10 mph 1024mb 35f
4:42 8 10 mph 1024mb 35f
4:36 10 14 mph 1024mb 35f
4:30 10 13 mph 1023.8mb 35f
4:24 7 10 mph 1023.8mb 35f
4:18 6 8 mph 1023.7mb 35f
4:12 7 9 mph 1023.7mb 35f
4:06 6 9 mph 1023.8mb 35f
4:00 8 11 mph 1023.8mb 35f
3:54 9 10 mph 1023.8mb 35f
3:48 9 11 mph 1023.8mb 35f
3:42 8 10 mph 1023.8mb 36f
3:36 9 11 mph 1023.8mb 36f
3:30 9 11 mph 1023.7mb 36f
3:24 9 11 mph 1023.7mb 36f
3:18 9 13 mph 1023.7mb 36f
3:12 9 11 mph 1023.7mb 36f
3:06 9 11 mph 1023.7mb 36f
3:00 9 10 mph 1023.7mb 36f
2:54 9 11 mph 1023.7mb 36f
2:48 9 11 mph 1023.8mb 36f
2:42 9 10 mph 1023.8mb 36f
2:36 8 10 mph 1023.9mb 36f
2:30 6 9 mph 1023.9mb 36f
2:24 7 9 mph 1023.8mb 36f
2:18 9 13 mph 1023.8mb 36f
2:12 7 10 mph 1023.8mb 36f
2:06 8 10 mph 1023.7mb 36f
2:00 7 8 mph 1023.7mb 36f
1:54 9 11 mph 1023.6mb 36f
1:48 7 10 mph 1023.7mb 36f
1:42 8 14 mph 1023.6mb 36f
1:36 10 14 mph 1023.5mb 36f
1:30 10 15 mph 1023.4mb 36f
1:24 9 14 mph 1023.4mb 36f
1:18 13 15 mph 1023.3mb 36f
1:12 13 15 mph 1023.4mb 36f
1:06 10 16 mph 1023.5mb 36f
1:00 9 11 mph 1023.5mb 36f
12:54 8 10 mph 1023.5mb 36f
12:48 8 11 mph 1023.5mb 36f
12:42 10 13 mph 1023.5mb 36f
12:36 9 14 mph 1023.5mb 36f
12:30 11 14 mph 1023.5mb 36f
12:24 13 15 mph 1023.5mb 35f
12:18 11 14 mph 1023.5mb 36f
12:12 13 14 mph 1023.5mb 35f
12:06 13 14 mph 1023.5mb 35f
12:00 11 14 mph 1023.5mb 35f
11:54 11 14 mph 1023.6mb 35f
11:48 10 11 mph 1023.6mb 35f
11:42 10 13 mph 1023.6mb 35f
11:36 9 11 mph 1023.7mb 35f
11:30 10 13 mph 1023.7mb 35f
11:24 9 11 mph 1023.7mb 35f
11:18 8 10 mph 1023.8mb 35f
11:12 9 11 mph 1023.8mb 35f
11:06 9 11 mph 1023.8mb 34f
11:00 8 10 mph 1023.9mb 35f
10:54 8 10 mph 1024mb 34f
10:48 8 10 mph 1024mb 34f
10:42 8 13 mph 1024.1mb 34f
10:36 6 8 mph 1024.2mb 34f
10:30 7 8 mph 1024.2mb 34f
10:24 8 10 mph 1024.3mb 33f
10:18 9 11 mph 1024.4mb 33f
10:12 9 10 mph 1024.4mb 33f
10:06 8 9 mph 1024.4mb 33f
10:00 9 11 mph 1024.5mb 33f
9:54 11 13 mph 1024.4mb 33f
9:48 10 13 mph 1024.5mb 33f
9:42 9 11 mph 1024.4mb 33f
9:36 11 13 mph 1024.5mb 33f
9:30 11 13 mph 1024.5mb 33f
9:24 11 14 mph 1024.5mb 33f
9:18 10 11 mph 1024.6mb 33f
9:12 9 11 mph 1024.6mb 33f
9:06 8 10 mph 1024.7mb 32f
9:00 7 9 mph 1024.6mb 32f
8:54 8 11 mph 1024.6mb 32f
8:48 7 8 mph 1024.6mb 32f
8:42 7 9 mph 1024.6mb 32f
8:36 6 8 mph 1024.5mb 32f
8:30 6 8 mph 1024.4mb 32f
8:24 3 5 mph 1024.4mb 32f
8:18 3 5 mph 1024.4mb 32f
8:12 3 6 mph 1024.3mb 32f
8:06 5 6 mph 1024.2mb 32f
8:00 6 9 mph 1024.2mb 32f
7:54 6 7 mph 1024.2mb 31f
7:48 5 7 mph 1024.1mb 31f
7:42 6 8 mph 1024mb 31f
7:36 7 8 mph 1023.9mb 31f
7:30 6 8 mph 1023.8mb 31f
7:24 6 7 mph 1023.7mb 31f
7:18 7 9 mph 1023.6mb 31f
7:12 7 9 mph 1023.6mb 31f
7:06 7 9 mph 1023.5mb 31f
7:00 6 7 mph 1023.5mb 31f
6:54 6 7 mph 1023.4mb 31f
6:48 5 7 mph 1023.4mb 31f
6:42 5 6 mph 1023.3mb 31f
6:36 6 7 mph 1023.2mb 31f
6:30 5 7 mph 1023.1mb 31f
6:24 5 7 mph 1022.9mb 31f
6:18 7 8 mph 1022.8mb 31f
6:12 6 7 mph 1022.8mb 31f
6:06 5 7 mph 1022.8mb 31f
6:00 5 6 mph 1022.7mb 31f
5:54 5 7 mph 1022.6mb 31f
5:48 6 8 mph 1022.4mb 31f
5:42 7 8 mph 1022.4mb 31f
5:36 6 8 mph 1022.3mb 31f
5:30 6 8 mph 1022.2mb 31f
5:24 6 8 mph 1022.1mb 31f
5:18 7 8 mph 1022.2mb 31f
5:12 6 7 mph 1022.1mb 31f
5:06 5 7 mph 1022mb 31f
5:00 5 6 mph 1021.9mb 31f
4:54 5 7 mph 1021.8mb 30f
4:48 5 7 mph 1021.8mb 30f
4:42 6 7 mph 1021.7mb 30f
4:36 6 7 mph 1021.6mb 30f
4:30 6 7 mph 1021.6mb 30f
4:24 6 8 mph 1021.6mb 30f
4:18 7 8 mph 1021.5mb 30f
4:12 7 8 mph 1021.5mb 30f
4:06 8 9 mph 1021.5mb 30f
4:00 7 9 mph 1021.4mb 30f
3:54 6 8 mph 1021.4mb 30f
3:48 7 8 mph 1021.3mb 30f
3:42 6 7 mph 1021.4mb 30f
3:36 6 8 mph 1021.3mb 30f
3:30 7 8 mph 1021.2mb 30f
3:24 6 8 mph 1021.2mb 30f
3:18 6 8 mph 1021.2mb 30f
3:12 5 7 mph 1021.2mb 29f
3:06 5 7 mph 1021.3mb 29f
3:00 5 6 mph 1021.3mb 29f
2:54 6 7 mph 1021.3mb 29f
2:48 6 8 mph 1021.4mb 29f
2:42 7 8 mph 1021.4mb 29f
2:36 6 8 mph 1021.4mb 29f
2:30 6 7 mph 1021.4mb 29f
2:24 3 5 mph 1021.3mb 30f
2:18 3 5 mph 1021.3mb 30f
2:12 6 7 mph 1021.2mb 29f
2:06 6 7 mph 1021.2mb 29f
2:00 5 6 mph 1021.1mb 29f
1:54 5 7 mph 1021.1mb 30f
1:48 5 7 mph 1021.1mb 30f
1:42 5 7 mph 1021.2mb 30f
1:36 5 6 mph 1021.1mb 30f
1:30 5 7 mph 1021mb 30f
1:24 5 6 mph 1021mb 30f
1:18 5 7 mph 1020.9mb 30f
1:12 5 6 mph 1020.8mb 30f
1:06 6 7 mph 1020.8mb 30f
1:00 7 8 mph 1020.7mb 30f
12:54 7 9 mph 1020.6mb 30f
12:48 7 9 mph 1020.6mb 31f
12:42 8 9 mph 1020.5mb 31f
12:36 8 10 mph 1020.4mb 31f
12:30 9 11 mph 1020.3mb 31f
12:24 9 11 mph 1020.2mb 31f
12:18 10 13 mph 1020.1mb 31f
12:12 9 13 mph 1020.1mb 31f
12:06 10 14 mph 1020mb 31f
12:00 10 13 mph 1020mb 31f
Sex 12/19 11:54 10 13 mph 1020mb 31f
11:48 10 11 mph 1020mb 31f
11:42 9 11 mph 1019.9mb 31f
11:36 10 13 mph 1019.9mb 31f
11:30 10 13 mph 1019.9mb 31f
11:24 10 14 mph 1019.8mb 31f
11:18 9 11 mph 1019.8mb 32f
11:12 7 9 mph 1019.8mb 32f
11:06 6 8 mph 1019.7mb 32f
11:00 6 7 mph 1019.7mb 32f
10:54 6 7 mph 1019.7mb 32f
10:48 6 8 mph 1019.6mb 32f
10:42 6 7 mph 1019.6mb 32f
10:36 6 8 mph 1019.5mb 32f
10:30 7 8 mph 1019.5mb 32f
10:24 7 9 mph 1019.5mb 33f
10:18 6 8 mph 1019.5mb 33f
10:12 7 8 mph 1019.4mb 33f
10:06 6 7 mph 1019.4mb 33f
10:00 6 8 mph 1019.4mb 33f
9:54 6
mph
1019.3mb 34f
9:48 6 7 mph 1019.4mb 34f
9:42 5 7 mph 1019.3mb 34f
9:36 6 7 mph 1019.3mb 34f
9:30 6 7 mph 1019.3mb 34f
9:24 6 7 mph 1019.3mb 34f
9:18 8 9 mph 1019.2mb 34f
9:12 7 9 mph 1019.1mb 34f
9:06 8 11 mph 1019.1mb 34f
9:00 6 9 mph 1019.1mb 34f
8:54 7 9 mph 1019mb 34f
8:48 8 10 mph 1019mb 34f
8:42 9 11 mph 1019mb 34f
8:36 9 11 mph 1018.9mb 35f
8:30 10 11 mph 1018.8mb 34f
8:24 9 13 mph 1018.6mb 35f
8:18 9 13 mph 1018.6mb 35f
8:12 8 11 mph 1018.5mb 35f
8:06 10 13 mph 1018.4mb 35f
8:00 10 14 mph 1018.3mb 35f
7:54 11 14 mph 1018.2mb 35f
7:48 10 13 mph 1018.2mb 35f
7:42 9 11 mph 1018.1mb 35f
7:36 9 11 mph 1018mb 35f
7:30 10 14 mph 1018mb 35f
7:24 9 11 mph 1018mb 35f
7:18 8 11 mph 1018mb 35f
7:12 9 11 mph 1017.9mb 35f
7:06 10 15 mph 1017.8mb 35f
7:00 8 13 mph 1017.8mb 35f
6:54 9 13 mph 1017.7mb 35f
6:48 7 10 mph 1017.6mb 35f
6:42 9 11 mph 1017.4mb 35f
6:36 8 10 mph 1017.3mb 35f
6:30 10 11 mph 1017.2mb 35f
6:24 8 13 mph 1017.1mb 35f
6:18 8 9 mph 1017mb 36f
6:12 8 9 mph 1016.9mb 35f
6:06 7 9 mph 1016.8mb 36f
6:00 8 9 mph 1016.6mb 36f
5:54 7 9 mph 1016.7mb 36f
5:48 7 9 mph 1016.6mb 36f
5:42 6 9 mph 1016.6mb 36f
5:36 7 9 mph 1016.5mb 36f
5:30 7 11 mph 1016.5mb 36f
5:24 8 10 mph 1016.4mb 36f
5:18 9 13 mph 1016.3mb 36f
5:12 9 14 mph 1016.2mb 36f
5:06 10 14 mph 1016.2mb 36f
5:00 8 13 mph 1016.1mb 36f
4:54 10 14 mph 1016mb 36f
4:48 9 13 mph 1015.9mb 36f
4:42 7 10 mph 1015.9mb 36f
4:36 9 13 mph 1015.8mb 36f
4:30 10 13 mph 1015.8mb 36f
4:24 11 14 mph 1015.7mb 36f
4:18 9 13 mph 1015.6mb 36f
4:12 10 15 mph 1015.5mb 36f
4:06 9 13 mph 1015.5mb 36f
4:00 10 14 mph 1015.5mb 36f
3:54 11 13 mph 1015.4mb 36f
3:48 10 13 mph 1015.3mb 36f
3:42 9 13 mph 1015.3mb 36f
3:36 11 14 mph 1015.2mb 36f
3:30 10 14 mph 1015.1mb 36f
3:24 13 16 mph 1014.9mb 36f
3:18 11 14 mph 1014.8mb 36f
3:12 10 14 mph 1014.7mb 36f
3:06 11 14 mph 1014.7mb 36f
3:00 10 14 mph 1014.7mb 36f
2:54 10 13 mph 1014.6mb 36f
2:48 9 11 mph 1014.6mb 36f
2:42 11 15 mph 1014.4mb 36f
2:36 14 16 mph 1014.2mb 36f
2:30 13 16 mph 1014.2mb 36f
2:24 14 18 mph 1014.2mb 36f
2:18 15 21 mph 1014mb 36f
2:12 14 17 mph 1014mb 36f
2:06 14 18 mph 1013.9mb 36f
2:00 16 21 mph 1013.8mb 37f
1:54 13 17 mph 1013.8mb 37f
1:48 13 15 mph 1013.7mb 37f
1:42 11 15 mph 1013.6mb 37f
1:36 11 14 mph 1013.5mb 37f
1:30 10 13 mph 1013.5mb 37f
1:24 10 14 mph 1013.5mb 37f
1:18 10 16 mph 1013.4mb 37f
1:12 13 16 mph 1013.3mb 37f
1:06 9 15 mph 1013.3mb 37f
1:00 10 13 mph 1013.4mb 37f
12:54 11 15 mph 1013.4mb 37f
12:48 10 14 mph 1013.4mb 37f
12:42 10 14 mph 1013.4mb 37f
12:36 11 15 mph 1013.4mb 37f
12:30 11 14 mph 1013.5mb 37f
12:24 9 14 mph 1013.5mb 37f
12:18 13 16 mph 1013.5mb 37f
12:12 11 15 mph 1013.6mb 37f
12:06 11 14 mph 1013.6mb 37f
12:00 10 14 mph 1013.6mb 37f
11:54 11 15 mph 1013.6mb 37f
11:48 14 17 mph 1013.6mb 37f
11:42 14 16 mph 1013.6mb 37f
11:36 13 16 mph 1013.6mb 37f
11:30 14 17 mph 1013.6mb 37f
11:24 14 20 mph 1013.6mb 37f
11:18 10 15 mph 1013.7mb 37f
11:12 13 15 mph 1013.6mb 37f
11:06 11 15 mph 1013.7mb 37f
11:00 15 18 mph 1013.7mb 37f
10:54 13 16 mph 1013.8mb 37f
10:48 13 16 mph 1013.8mb 37f
10:42 14 15 mph 1013.8mb 37f
10:36 15 17 mph 1013.8mb 37f
10:30 13 17 mph 1013.9mb 37f
10:24 15 20 mph 1014mb 37f
10:18 14 17 mph 1014mb 37f
10:12 13 16 mph 1014mb 37f
10:06 14 18 mph 1014mb 37f
10:00 17 22 mph 1014mb 37f
9:54 13 16 mph 1014.1mb 37f
9:48 15 18 mph 1014mb 37f
9:42 13 16 mph 1014mb 37f
9:36 15 18 mph 1013.8mb 37f
9:30 15 18 mph 1013.8mb 37f
9:24 13 16 mph 1013.8mb 37f
9:18 17 22 mph 1013.7mb 37f
9:12 17 21 mph 1013.6mb 37f
9:06 15 18 mph 1013.5mb 37f
9:00 16 21 mph 1013.4mb 37f
8:54 14 18 mph 1013.4mb 37f
8:48 13 16 mph 1013.4mb 37f
8:42 13 16 mph 1013.3mb 37f
8:36 13 15 mph 1013.3mb 37f
8:30 14 16 mph 1013.3mb 37f
8:24 10 14 mph 1013.3mb 37f
8:18 11 14 mph 1013.3mb 37f
8:12 9 13 mph 1013.2mb 37f
8:06 9 13 mph 1013.2mb 37f
8:00 8 13 mph 1013.1mb 36f
7:54 7 9 mph 1013.1mb 36f
7:48 7 9 mph 1013mb 36f
7:42 7 9 mph 1013mb 36f
7:36 7 8 mph 1012.9mb 35f
7:30 7 10 mph 1012.9mb 35f
7:24 7 10 mph 1012.8mb 35f
7:18 6 7 mph 1012.7mb 35f
7:12 6 8 mph 1012.7mb 35f
7:06 5 6 mph 1012.7mb 35f
7:00 5 6 mph 1012.6mb 35f
6:54 5 6 mph 1012.6mb 35f
6:48 5 6 mph 1012.5mb 35f
6:42 7 8 mph 1012.5mb 35f
6:36 6 9 mph 1012.5mb 35f
6:30 5 7 mph 1012.4mb 35f
6:24 7 9 mph 1012.3mb 35f
6:18 8 13 mph 1012.2mb 35f
6:12 7 9 mph 1012.1mb 35f
6:06 8 11 mph 1011.9mb 35f
6:00 9 14 mph 1011.8mb 36f
5:54 9 10 mph 1011.8mb 36f
5:48 10 15 mph 1011.6mb 36f
5:42 10 14 mph 1011.6mb 36f
5:36 10 13 mph 1011.6mb 36f
5:30 13 16 mph 1011.5mb 36f
5:24 11 14 mph 1011.5mb 36f
5:18 11 14 mph 1011.5mb 36f
5:12 11 13 mph 1011.5mb 36f
5:06 10 14 mph 1011.5mb 36f
5:00 10 13 mph 1011.5mb 36f
4:54 11 15 mph 1011.5mb 36f
4:48 11 13 mph 1011.5mb 36f
4:42 10 13 mph 1011.5mb 36f
4:36 11 14 mph 1011.4mb 36f
4:30 11 14 mph 1011.3mb 36f
4:24 13 14 mph 1011.3mb 37f
4:18 14 16 mph 1011.2mb 37f
4:12 14 16 mph 1011.2mb 37f
4:06 14 16 mph 1011.2mb 37f
4:00 15 17 mph 1011.1mb 37f
3:54 11 14 mph 1011.2mb 37f
3:48 11 14 mph 1011.3mb 37f
3:42 11 14 mph 1011.3mb 37f
3:36 11 15 mph 1011.3mb 37f
3:30 10 13 mph 1011.4mb 37f
3:24 11 15 mph 1011.4mb 37f
3:18 9 13 mph 1011.5mb 37f
3:12 9 14 mph 1011.5mb 37f
3:06 11 15 mph 1011.4mb 37f
3:00 10 13 mph 1011.5mb 37f
2:54 10 13 mph 1011.4mb 37f
2:48 11 14 mph 1011.4mb 37f
2:42 14 16 mph 1011.4mb 37f
2:36 13 15 mph 1011.3mb 37f
2:30 10 13 mph 1011.3mb 37f
2:24 11 14 mph 1011.4mb 37f
2:18 10 14 mph 1011.3mb 37f
2:12 11 14 mph 1011.3mb 37f
2:06 10 14 mph 1011.3mb 37f
2:00 10 11 mph 1011.3mb 37f
1:54 13 17 mph 1011.3mb 37f
1:48 13 16 mph 1011.3mb 37f
1:42 13 17 mph 1011.3mb 38f
1:36 14 18 mph 1011.3mb 38f
1:30 15 20 mph 1011.2mb 38f
1:24 14 18 mph 1011.2mb 38f
1:18 13 15 mph 1011.2mb 38f
1:12 13 17 mph 1011.3mb 38f
1:06 13 16 mph 1011.3mb 38f
1:00 14 18 mph 1011.2mb 38f
12:54 14 15 mph 1011.2mb 38f
12:48 13 16 mph 1011.2mb 38f
12:42 13 15 mph 1011.2mb 38f
12:36 11 16 mph 1011.2mb 38f
12:30 13 16 mph 1011.2mb 38f
12:24 14 16 mph 1011.2mb 38f
12:18 14 18 mph 1011.2mb 38f
12:12 13 15 mph 1011.3mb 38f
12:06 14 16 mph 1011.3mb 38f
12:00 15 18 mph 1011.3mb 38f
Qui 12/18 11:54 15 18 mph 1011.3mb 38f
11:48 14 16 mph 1011.3mb 38f
11:42 13 16 mph 1011.3mb 38f
11:36 14 16 mph 1011.3mb 38f
11:30 15 17 mph 1011.2mb 38f
11:24 11 15 mph 1011.3mb 38f
11:18 13 14 mph 1011.3mb 38f
11:12 13 14 mph 1011.4mb 38f
11:06 13 16 mph 1011.4mb 38f
11:00 13 16 mph 1011.4mb 38f
10:54 14 16 mph 1011.3mb 38f
10:48 13 15 mph 1011.3mb 38f
10:42 13 15 mph 1011.3mb 38f
10:36 13 16 mph 1011.3mb 38f
10:30 13 14 mph 1011.3mb 38f
10:24 13 15 mph 1011.2mb 38f
10:18 14 16 mph 1011.2mb 38f
10:12 14 16 mph 1011.1mb 38f
10:06 13 16 mph 1011.2mb 38f
10:00 14 16 mph 1011.1mb 38f
9:54 14 16 mph 1011mb 38f
9:48 13 16 mph 1011mb 38f
9:42 14 16 mph 1011mb 38f
9:36 14 16 mph 1011mb 38f
9:30 14 16 mph 1011.1mb 38f
9:24 15 18 mph 1011mb 38f
9:18 15 18 mph 1011mb 38f
9:12 14 17 mph 1011.1mb 39f
9:06 14 16 mph 1011.1mb 38f
9:00 14 16 mph 1011mb 38f
8:54 14 18 mph 1010.9mb 38f
8:48 10 17 mph 1010.8mb 39f
8:42 14 17 mph 1010.9mb 38f
8:36 14 16 mph 1010.9mb 39f
8:30 13 14 mph 1010.9mb 39f
8:24 11 14 mph 1010.8mb 39f
8:18 11 15 mph 1010.7mb 39f
8:12 9 10 mph 1010.7mb 39f
8:06 10 14 mph 1010.6mb 39f
8:00 14 15 mph 1010.7mb 39f
7:54 14 16 mph 1010.8mb 39f
7:48 14 16 mph 1010.8mb 39f
7:42 13 17 mph 1010.9mb 39f
7:36 15 17 mph 1010.9mb 40f
7:30 13 15 mph 1011mb 40f
7:24 15 17 mph 1010.9mb 40f
7:18 13 16 mph 1011mb 40f
7:12 16 18 mph 1011.1mb 40f
7:06 18 22 mph 1011.1mb 40f
7:00 17 21 mph 1011.1mb 40f
6:54 17 21 mph 1011mb 40f
6:48 16 18 mph 1011.1mb 40f
6:42 20 23 mph 1011mb 40f
6:36 20 23 mph 1011mb 40f
6:30 17 20 mph 1010.9mb 40f
6:24 16 20 mph 1011mb 40f
6:18 16 20 mph 1010.9mb 40f
6:12 16 17 mph 1010.8mb 40f
6:06 15 17 mph 1010.7mb 40f
6:00 15 17 mph 1010.6mb 40f
5:54 13 15 mph 1010.5mb 40f
5:48 16 20 mph 1010.3mb 41f
5:42 16 21 mph 1010.2mb 41f
5:36 13 15 mph 1010.2mb 41f
5:30 14 18 mph 1010.2mb 41f
5:24 18 21 mph 1010.1mb 41f
5:18 16 20 mph 1010.1mb 41f
5:12 16 20 mph 1010mb 41f
5:06 17 22 mph 1009.9mb 41f
5:00 17 23 mph 1010mb 41f
4:54 14 16 mph 1009.9mb 41f
4:48 13 15 mph 1009.9mb 42f
4:42 13 15 mph 1009.9mb 42f
4:36 10 13 mph 1009.9mb 42f
4:30 10 11 mph 1009.8mb 42f
4:24 14 18 mph 1009.7mb 42f
4:18 14 17 mph 1009.6mb 42f
4:12 14 17 mph 1009.5mb 42f
4:06 13 16 mph 1009.6mb 42f
4:00 15 17 mph 1009.4mb 42f
3:54 18 24 mph 1009.4mb 42f
3:48 16 20 mph 1009.4mb 42f
3:42 18 21 mph 1009.1mb 42f
3:36 16 21 mph 1009.1mb 42f
3:30 17 20 mph 1009.1mb 42f
3:24 17 22 mph 1009mb 42f
3:18 18 23 mph 1009mb 42f
3:12 18 22 mph 1009.1mb 42f
3:06 20 23 mph 1009mb 42f
3:00 21 24 mph 1008.8mb 42f
2:54 20 22 mph 1008.8mb 42f
2:48 18 23 mph 1008.8mb 42f
2:42 15 20 mph 1008.8mb 42f
2:36 17 22 mph 1008.8mb 42f
2:30 16 20 mph 1008.7mb 42f
2:24 18 24 mph 1008.5mb 42f
2:18 16 22 mph 1008.5mb 42f
2:12 17 22 mph 1008.5mb 42f
2:06 17 21 mph 1008.4mb 42f
2:00 20 24 mph 1008.3mb 42f
1:54 20 24 mph 1008.2mb 42f
1:48 18 23 mph 1008.2mb 42f
1:42 17 22 mph 1008.2mb 42f
1:36 17 22 mph 1008.2mb 43f
1:30 20 25 mph 1008.1mb 43f
1:24 20 22 mph 1008.1mb 43f
1:18 20 24 mph 1008.2mb 43f
1:12 23 29 mph 1008.2mb 42f
1:06 16 22 mph 1008.2mb 43f
1:00 18 26 mph 1008.2mb 42f
12:54 21 25 mph 1008.2mb 42f
12:48 24 28 mph 1008.1mb 41f
12:42 22 25 mph 1008.2mb 42f
12:36 23 29 mph 1008.2mb 41f
12:30 22 28 mph 1008.2mb 42f
12:24 18 25 mph 1008.4mb 42f
12:18 22 29 mph 1008.4mb 42f
12:12 24 30 mph 1008.4mb 42f
12:06 23 30 mph 1008.5mb 42f
12:00 22 30 mph 1008.5mb 42f
11:54 17 23 mph 1008.6mb 42f
11:48 21 25 mph 1008.6mb 43f
11:42 20 24 mph 1008.7mb 43f
11:36 21 28 mph 1008.6mb 43f
11:30 22 28 mph 1008.6mb 43f
11:24 20 25 mph 1008.6mb 42f
11:18 20 28 mph 1008.6mb 43f
11:12 22 28 mph 1008.6mb 43f
11:06 26 33 mph 1008.5mb 43f
11:00 23 30 mph 1008.6mb 43f
10:54 24 29 mph 1008.6mb 43f
10:48 24 30 mph 1008.7mb 42f
10:42 24 32 mph 1008.7mb 42f
10:36 24 29 mph 1008.7mb 42f
10:30 24 29 mph 1008.8mb 42f
10:24 24 33 mph 1008.8mb 42f
10:18 22 29 mph 1008.9mb 42f
10:12 22 29 mph 1008.9mb 42f
10:06 20 24 mph 1009mb 41f
10:00 18 24 mph 1009.1mb 42f
9:54 15 18 mph 1009.1mb 41f
9:48 20 25 mph 1009.1mb 41f
9:42 21 28 mph 1009mb 41f
9:36 24 30 mph 1009mb 40f
9:30 17 22 mph 1009.1mb 40f
9:24 14 18 mph 1009.2mb 40f
9:18 20 26 mph 1009.1mb 40f
9:12 20 23 mph 1009.1mb 40f
9:06 18 26 mph 1009mb 39f
9:00 17 22 mph 1009mb 39f
8:54 21 29 mph 1008.8mb 39f
8:48 17 21 mph 1008.8mb 39f
8:42 18 25 mph 1008.7mb 39f
8:36 18 25 mph 1008.7mb 38f
8:30 21 28 mph 1008.6mb 38f
8:24 21 28 mph 1008.5mb 38f
8:18 16 23 mph 1008.5mb 38f
8:12 16 20 mph 1008.4mb 38f
8:06 16 21 mph 1008.4mb 38f
8:00 16 20 mph 1008.3mb 38f
7:54 15 18 mph 1008.3mb 38f
7:48 18 22 mph 1008.2mb 38f
7:42 20 23 mph 1008.2mb 38f
7:36 18 23 mph 1008.1mb 38f
7:30 20 24 mph 1008mb 38f
7:24 21 28 mph 1008mb 38f
7:18 21 28 mph 1007.9mb 38f
7:12 21 24 mph 1007.9mb 38f
7:06 21 24 mph 1007.9mb 38f
7:00 18 22 mph 1007.9mb 38f
6:54 18 24 mph 1007.9mb 39f
6:48 17 21 mph 1007.8mb 39f
6:42 20 26 mph 1007.7mb 39f
6:36 23 29 mph 1007.7mb 39f
6:30 24 29 mph 1007.6mb 39f
6:24 17 22 mph 1007.7mb 40f
6:18 22 26 mph 1007.5mb 40f
6:12 21 28 mph 1007.5mb 40f
6:06 20 23 mph 1007.5mb 40f
6:00 20 25 mph 1007.5mb 40f
5:54 22 25 mph 1007.3mb 40f
5:48 21 25 mph 1007.3mb 40f
5:42 20 25 mph 1007.2mb 40f
5:36 21 26 mph 1007.1mb 41f
5:30 20 24 mph 1007mb 41f
5:24 18 23 mph 1007mb 41f
5:18 20 24 mph 1007mb 41f
5:12 17 21 mph 1007.1mb 41f
5:06 20 23 mph 1007mb 40f
5:00 16 18 mph 1007mb 41f
4:54 18 21 mph 1007mb 41f
4:48 17 21 mph 1006.9mb 41f
4:42 18 24 mph 1006.8mb 41f
4:36 17 21 mph 1006.9mb 41f
4:30 17 21 mph 1006.8mb 41f
4:24 17 20 mph 1006.8mb 41f
4:18 16 20 mph 1006.8mb 41f
4:12 16 20 mph 1006.8mb 41f
4:06 16 21 mph 1006.8mb 41f
4:00 15 18 mph 1006.8mb 41f
3:54 14 17 mph 1006.8mb 41f
3:48 14 15 mph 1006.8mb 41f
3:42 14 16 mph 1006.7mb 40f
3:36 11 14 mph 1006.7mb 40f
3:30 13 14 mph 1006.6mb 40f
3:24 11 13 mph 1006.6mb 40f
3:18 13 14 mph 1006.7mb 40f
3:12 13 15 mph 1006.9mb 40f
3:06 14 15 mph 1007mb 40f
3:00 14 16 mph 1007.1mb 40f
2:54 14 18 mph 1007mb 40f
2:48 13 15 mph 1007mb 40f
2:42 14 16 mph 1007.1mb 40f
2:36 15 17 mph 1007.1mb 40f
2:30 16 18 mph 1007.1mb 40f
2:24 14 17 mph 1007.2mb 40f
2:18 15 18 mph 1007.2mb 40f
2:12 14 17 mph 1007.2mb 40f
2:06 16 20 mph 1007.1mb 40f
2:00 15 17 mph 1007mb 40f
1:54 14 17 mph 1007mb 40f
1:48 15 18 mph 1007mb 40f
1:36 16 20 mph 1006.8mb 40f
1:30 15 18 mph 1006.9mb 41f
1:24 15 18 mph 1006.9mb 41f
1:18 18 22 mph 1006.8mb 40f
1:12 17 21 mph 1006.7mb 41f
1:06 16 20 mph 1006.7mb 41f
1:00 17 20 mph 1006.7mb 41f
12:54 18 23 mph 1006.7mb 41f
12:48 20 25 mph 1006.7mb 41f
12:42 18 21 mph 1006.8mb 42f
12:36 17 21 mph 1006.8mb 42f
12:30 16 17 mph 1006.9mb 42f
12:24 18 22 mph 1006.8mb 42f
12:18 22 25 mph 1006.8mb 42f
12:12 16 21 mph 1006.9mb 42f
12:06 16 20 mph 1006.8mb 42f
12:00 15 20 mph 1006.8mb 43f
Qua 12/17 11:54 15 20 mph 1006.8mb 43f
11:48 14 18 mph 1006.8mb 43f
11:42 13 16 mph 1006.8mb 43f
11:36 13 16 mph 1006.7mb 43f
11:30 11 15 mph 1006.8mb 43f
11:24 13 15 mph 1006.8mb 43f
11:18 15 17 mph 1006.8mb 43f
11:12 15 17 mph 1006.8mb 43f
11:06 14 20 mph 1006.9mb 43f
11:00 16 23 mph 1007mb 43f
10:54 17 21 mph 1007.1mb 43f
10:48 17 22 mph 1007.2mb 44f
10:42 18 21 mph 1007.2mb 44f
10:36 11 17 mph 1007.4mb 44f
10:30 13 16 mph 1007.4mb 44f
10:24 10 11 mph 1007.5mb 44f
10:18 14 15 mph 1007.4mb 44f
10:12 14 17 mph 1007.4mb 44f
10:06 15 18 mph 1007.3mb 44f
10:00 11 17 mph 1007.3mb 44f
9:54 11 15 mph 1007.3mb 44f
9:48 15 18 mph 1007.2mb 45f
9:42 16 22 mph 1007.1mb 45f
9:36 17 26 mph 1007.1mb 45f
9:30 16 20 mph 1007mb 45f
9:24 17 21 mph 1007mb 45f
9:18 15 17 mph 1007mb 45f
9:12 20 23 mph 1007mb 45f
9:06 15 17 mph 1007.1mb 46f
9:00 16 21 mph 1007mb 46f
8:54 17 20 mph 1007mb 46f
8:48 14 16 mph 1007mb 46f
8:42 13 16 mph 1007mb 46f
8:36 16 21 mph 1006.9mb 46f
8:30 18 22 mph 1006.8mb 46f
8:24 17 29 mph 1006.8mb 46f
8:18 20 24 mph 1006.7mb 46f
8:12 15 17 mph 1006.8mb 46f
8:06 17 20 mph 1006.8mb 46f
8:00 15 16 mph 1007mb 47f
7:54 14 16 mph 1007mb 47f
7:48 14 17 mph 1007mb 47f
7:42 14 16 mph 1007mb 47f
7:36 15 20 mph 1007mb 47f
7:30 14 20 mph 1007mb 47f
7:24 14 18 mph 1007mb 47f
7:18 14 18 mph 1007mb 47f
7:12 18 25 mph 1006.8mb 47f
7:06 20 24 mph 1006.8mb 47f
7:00 17 22 mph 1006.9mb 48f
6:54 18 23 mph 1007mb 48f
6:48 14 18 mph 1007.1mb 47f
6:42 15 23 mph 1007.1mb 48f
6:36 15 20 mph 1007.1mb 48f
6:30 14 18 mph 1007.1mb 48f
6:24 16 21 mph 1007mb 48f
6:18 15 18 mph 1007mb 48f
6:12 13 16 mph 1007mb 48f
6:06 13 18 mph 1006.9mb 48f
6:00 11 14 mph 1006.9mb 48f
5:54 14 16 mph 1006.9mb 48f
5:48 13 18 mph 1006.9mb 48f
5:42 13 15 mph 1006.8mb 48f
5:36 11 14 mph 1006.8mb 48f
5:30 13 15 mph 1006.9mb 48f
5:24 14 17 mph 1006.8mb 48f
5:18 15 21 mph 1006.6mb 48f
5:12 16 20 mph 1006.5mb 48f
5:06 16 21 mph 1006.5mb 48f
5:00 16 21 mph 1006.3mb 48f
4:54 15 20 mph 1006.3mb 48f
4:48 20 26 mph 1006.2mb 49f
4:42 20 24 mph 1006.1mb 49f
4:36 18 23 mph 1006.2mb 49f
4:30 15 18 mph 1006.2mb 49f
4:24 16 22 mph 1006.1mb 49f
4:18 16 21 mph 1006.1mb 49f
4:12 15 18 mph 1006.1mb 49f
4:06 14 16 mph 1006.1mb 49f
4:00 13 17 mph 1006mb 49f
3:54 14 18 mph 1005.9mb 49f
3:48 11 17 mph 1005.8mb 49f
3:42 13 17 mph 1005.7mb 49f
3:36 13 18 mph 1005.6mb 49f
3:30 13 15 mph 1005.6mb 49f
3:24 14 16 mph 1005.6mb 49f
3:18 17 22 mph 1005.5mb 49f
3:12 14 18 mph 1005.4mb 49f
3:06 17 21 mph 1005.4mb 49f
3:00 15 22 mph 1005.4mb 49f
2:54 14 17 mph 1005.4mb 49f
2:48 20 24 mph 1005.2mb 49f
2:42 18 22 mph 1005.2mb 49f
2:36 20 26 mph 1005.2mb 49f
2:30 22 28 mph 1005mb 49f
2:18 16 20 mph 1005mb 50f
2:12 15 22 mph 1005mb 50f
2:06 16 20 mph 1005mb 50f
2:00 11 14 mph 1005mb 49f
1:54 10 13 mph 1005mb 49f
1:48 13 15 mph 1004.9mb 49f
1:42 8 10 mph 1004.9mb 48f
1:36 7 9 mph 1004.9mb 47f
1:30 8 10 mph 1004.9mb 47f
1:24 9 10 mph 1004.9mb 47f
1:18 8 11 mph 1004.9mb 47f
1:12 7 10 mph 1004.9mb 47f
1:06 8 10 mph 1004.9mb 46f
1:00 9 13 mph 1005mb 46f
12:54 9 14 mph 1005mb 46f
12:48 9 14 mph 1005.2mb 46f
12:42 9 13 mph 1005.2mb 46f
12:36 9 11 mph 1005.2mb 46f
12:30 9 13 mph 1005.2mb 46f
12:24 10 13 mph 1005.2mb 46f
12:18 10 14 mph 1005.4mb 46f
12:12 10 13 mph 1005.6mb 45f
12:06 8 10 mph 1005.6mb 45f
12:00 13 15 mph 1005.6mb 45f
11:54 14 16 mph 1005.5mb 45f
11:48 16 20 mph 1005.6mb 45f
11:42 15 18 mph 1005.5mb 45f
11:36 14 17 mph 1005.5mb 44f
11:30 11 14 mph 1005.6mb 44f
11:24 11 15 mph 1005.7mb 44f
11:18 9 11 mph 1005.8mb 44f
11:12 9 14 mph 1005.9mb 44f
11:06 10 14 mph 1005.9mb 44f